Luqa, Malta

4:27 PM CET on February 06, 2016 (GMT +0100)
Luqa | | Change Station
CLOSE
Current Station
Airport
Location: Luqa,
Elevation: 299 ft
Nearby Weather Stations

Elev 299 ft 35.86 °N, 14.48 °E | Updated 12 minutes ago

Partly Cloudy
Partly Cloudy
57 °F
Feels Like 57 °F
N
8
Wind Variable Wind from South

Today
High -- | Low -- °F
--% Chance of Precip.
Yesterday
High -- | Low -- °F
Precip. -- in
Pressure 30.42 in
Visibility 6.2 miles
Clouds Few 3200 ft
Dew Point 43 °F
Humidity 59%
Rainfall 0.00 in
Snow Depth Not available.
6:58 AM 5:33 PM
Waning Crescent, 5% visible
METAR LMML 061515Z 18007KT 140V220 9999 FEW032 14/06 Q1030 NOSIG
Pressure 30.42 in
Visibility 6.2 miles
Clouds Few 3200 ft
Dew Point 43 °F
Humidity 59%
Rainfall 0.00 in
Snow Depth Not available.
6:58 AM 5:33 PM
Waning Crescent, 5% visible
METAR LMML 061515Z 18007KT 140V220 9999 FEW032 14/06 Q1030 NOSIG

10-Day Weather Forecast

Almanac

Astronomy

Feb. 06, 2016 Rise Set
Actual Time
Civil Twilight
Nautical Twilight
Astronomical Twilight
Moon
Length of Visible Light
Length of Day
Tomorrow will be .
, % of the Moon is Illuminated

Today's Extremes

Country Highs Country Lows

Community

WunderPhotos

Upload Photos

1,890,987 photos uploaded!

WunderBlog® & News

Nearby

Air Quality

  Air Quality AQ Index Pollutant
Not available.

Snow Depth

Station Depth Elevation

Earthquake Activity

City Distance Mag. Time & Date
Minimum magnitude displayed is 2.5.

Coastal Water Temperatures

Place Temperature

Stations

Nearby Weather Stations

Station Location Temp. Windchill Dew Point Humidity Wind Precip. Elev Updated Type